Time;durP1;ratioP1;P1;durP2;ratioP2;P2;SDS_P1;SDS_P2;PMS_P1;PMS_P2;Temp;Humidity;BMP_temperature;BMP_pressure;BME280_temperature;BME280_humidity;BME280_pressure;Samples;Min_cycle;Max_cycle;Signal;HPM_P1;HPM_P2
2024/01/12 00:00:57;;;;;;;30.75;16.92;;;;;;;;;;5095641;28;20223;-69
2024/01/12 00:03:27;;;;;;;19.83;12.68;;;;;;;;;;5094312;28;20198;-69
2024/01/12 00:05:55;;;;;;;26.75;14.93;;;;;;;;;;5095127;28;20199;-69
2024/01/12 00:08:23;;;;;;;27.13;15.38;;;;;;;;;;5094762;28;20199;-69
2024/01/12 00:10:52;;;;;;;27.92;15.52;;;;;;;;;;5096231;28;20199;-69
2024/01/12 00:13:20;;;;;;;26.85;13.20;;;;;;;;;;5095337;28;20218;-69
2024/01/12 00:15:48;;;;;;;22.48;12.35;;;;;;;;;;5096603;28;20203;-69
2024/01/12 00:18:16;;;;;;;24.70;15.10;;;;;;;;;;5095359;28;20665;-69
2024/01/12 00:20:46;;;;;;;31.60;15.35;;;;;;;;;;5095930;28;20219;-69
2024/01/12 00:23:14;;;;;;;30.02;15.63;;;;;;;;;;5091119;28;20199;-69
2024/01/12 00:25:42;;;;;;;28.40;15.88;;;;;;;;;;5095831;28;20219;-69
2024/01/12 00:28:11;;;;;;;29.90;16.30;;;;;;;;;;5095334;28;20260;-69
2024/01/12 00:30:39;;;;;;;26.23;15.60;;;;;;;;;;5095897;28;20206;-69
2024/01/12 00:33:08;;;;;;;27.02;14.45;;;;;;;;;;5094794;28;20207;-69
2024/01/12 00:35:36;;;;;;;25.77;14.50;;;;;;;;;;5096045;28;20199;-69
2024/01/12 00:38:05;;;;;;;27.95;15.07;;;;;;;;;;5094118;28;20200;-69
2024/01/12 00:40:34;;;;;;;27.27;16.80;;;;;;;;;;5094348;28;20231;-69
2024/01/12 00:43:02;;;;;;;27.30;15.70;;;;;;;;;;5095026;28;20218;-69
2024/01/12 00:45:30;;;;;;;28.42;16.90;;;;;;;;;;5094104;28;20622;-69
2024/01/12 00:47:59;;;;;;;30.98;15.73;;;;;;;;;;5094843;28;20207;-69
2024/01/12 00:50:27;;;;;;;28.33;16.02;;;;;;;;;;5095178;28;20200;-69
2024/01/12 00:52:55;;;;;;;29.05;15.10;;;;;;;;;;5076339;28;20203;-69
2024/01/12 00:55:25;;;;;;;24.85;14.25;;;;;;;;;;5094722;28;20195;-69
2024/01/12 00:57:53;;;;;;;26.80;16.35;;;;;;;;;;5094708;28;20207;-69
2024/01/12 01:00:21;;;;;;;30.95;14.90;;;;;;;;;;5094267;28;20233;-69
2024/01/12 01:02:49;;;;;;;24.45;14.18;;;;;;;;;;5093631;28;20192;-69
2024/01/12 01:05:18;;;;;;;31.85;16.52;;;;;;;;;;5079325;28;20420;-69
2024/01/12 01:07:46;;;;;;;33.10;18.13;;;;;;;;;;5093774;28;20202;-69
2024/01/12 01:10:14;;;;;;;27.45;15.13;;;;;;;;;;5094409;28;20192;-69
2024/01/12 01:12:44;;;;;;;27.38;14.50;;;;;;;;;;5059888;28;20207;-69
2024/01/12 01:15:14;;;;;;;31.15;14.73;;;;;;;;;;5094287;28;20214;-69
2024/01/12 01:17:43;;;;;;;23.10;14.40;;;;;;;;;;5094210;28;20603;-69
2024/01/12 01:20:11;;;;;;;25.38;15.32;;;;;;;;;;5094285;28;20211;-69
2024/01/12 01:22:40;;;;;;;27.50;14.80;;;;;;;;;;5093809;28;20195;-69
2024/01/12 01:25:08;;;;;;;24.38;13.80;;;;;;;;;;5094555;28;20213;-69
2024/01/12 01:27:36;;;;;;;28.30;15.80;;;;;;;;;;5076327;28;20211;-69
2024/01/12 01:30:07;;;;;;;25.30;14.88;;;;;;;;;;5093808;28;20199;-69
2024/01/12 01:32:35;;;;;;;28.77;15.02;;;;;;;;;;5093728;28;20195;-69
2024/01/12 01:35:03;;;;;;;26.23;13.80;;;;;;;;;;5094073;28;20588;-69
2024/01/12 01:37:31;;;;;;;25.73;14.68;;;;;;;;;;5093355;28;20672;-69
2024/01/12 01:40:01;;;;;;;28.63;16.40;;;;;;;;;;5073308;28;20246;-69
2024/01/12 01:42:30;;;;;;;28.83;15.13;;;;;;;;;;5082878;28;20617;-69
2024/01/12 01:44:58;;;;;;;22.73;15.43;;;;;;;;;;5074810;28;20219;-70
2024/01/12 01:47:28;;;;;;;26.50;14.23;;;;;;;;;;5093827;28;20207;-69
2024/01/12 01:49:57;;;;;;;29.08;15.40;;;;;;;;;;5093683;28;20671;-69
2024/01/12 01:52:27;;;;;;;24.48;15.15;;;;;;;;;;5092975;28;20669;-69
2024/01/12 01:54:55;;;;;;;23.70;14.13;;;;;;;;;;5093563;28;20255;-69
2024/01/12 01:57:24;;;;;;;24.30;14.23;;;;;;;;;;5092955;28;20202;-69
2024/01/12 01:59:52;;;;;;;32.03;15.20;;;;;;;;;;5093622;28;20308;-70
2024/01/12 02:02:20;;;;;;;24.33;14.20;;;;;;;;;;5089670;28;20686;-67
2024/01/12 02:04:52;;;;;;;25.00;14.35;;;;;;;;;;5090611;28;20675;-68
2024/01/12 02:07:20;;;;;;;27.55;14.85;;;;;;;;;;5090727;28;20630;-67
2024/01/12 02:09:48;;;;;;;32.67;15.07;;;;;;;;;;5091572;28;20209;-67
2024/01/12 02:12:17;;;;;;;24.25;14.63;;;;;;;;;;5073045;28;20565;-67
2024/01/12 02:14:45;;;;;;;26.25;14.52;;;;;;;;;;5091555;28;20199;-67
2024/01/12 02:17:13;;;;;;;25.67;14.80;;;;;;;;;;5091357;28;20922;-67
2024/01/12 02:19:41;;;;;;;28.80;13.82;;;;;;;;;;5091191;28;20270;-68
2024/01/12 02:22:11;;;;;;;22.83;13.77;;;;;;;;;;5091502;28;20219;-67
2024/01/12 02:24:39;;;;;;;26.30;15.20;;;;;;;;;;5091536;28;20199;-67
2024/01/12 02:27:07;;;;;;;24.40;14.43;;;;;;;;;;5091522;28;20213;-67
2024/01/12 02:29:35;;;;;;;24.27;13.90;;;;;;;;;;5091087;28;20199;-67
2024/01/12 02:32:04;;;;;;;26.10;14.27;;;;;;;;;;5091264;28;20187;-67
2024/01/12 02:34:32;;;;;;;26.10;14.15;;;;;;;;;;5090389;28;20213;-67
2024/01/12 02:37:00;;;;;;;26.58;12.63;;;;;;;;;;5091119;28;20588;-67
2024/01/12 02:39:30;;;;;;;20.58;13.90;;;;;;;;;;5090775;28;20199;-67
2024/01/12 02:41:58;;;;;;;26.85;13.60;;;;;;;;;;5091106;28;20243;-67
2024/01/12 02:44:26;;;;;;;23.02;14.35;;;;;;;;;;5082472;28;20686;-67
2024/01/12 02:46:54;;;;;;;23.73;14.45;;;;;;;;;;5086077;28;20206;-67
2024/01/12 02:49:23;;;;;;;27.50;15.13;;;;;;;;;;5090328;28;20275;-67
2024/01/12 02:51:54;;;;;;;25.13;13.65;;;;;;;;;;5091164;28;20689;-67
2024/01/12 02:54:22;;;;;;;27.63;16.88;;;;;;;;;;5089445;28;20199;-67
2024/01/12 02:56:51;;;;;;;26.02;14.43;;;;;;;;;;5091512;28;20203;-67
2024/01/12 02:59:20;;;;;;;28.08;15.68;;;;;;;;;;5090361;28;20203;-67
2024/01/12 03:01:48;;;;;;;26.27;15.43;;;;;;;;;;5090328;28;20308;-69
2024/01/12 03:04:16;;;;;;;21.90;14.00;;;;;;;;;;5094898;28;20199;-67
2024/01/12 03:06:44;;;;;;;20.95;13.90;;;;;;;;;;5097324;28;20213;-67
2024/01/12 03:09:12;;;;;;;22.73;14.13;;;;;;;;;;5078919;28;20199;-67
2024/01/12 03:11:41;;;;;;;25.63;14.85;;;;;;;;;;5098176;28;20188;-69
2024/01/12 03:14:12;;;;;;;25.40;14.45;;;;;;;;;;5097356;28;20206;-67
2024/01/12 03:16:42;;;;;;;26.08;14.93;;;;;;;;;;5097528;28;20191;-67
2024/01/12 03:19:11;;;;;;;24.20;13.90;;;;;;;;;;5097364;28;20217;-69
2024/01/12 03:21:39;;;;;;;25.42;14.32;;;;;;;;;;5079596;28;20211;-67
2024/01/12 03:24:07;;;;;;;23.67;14.52;;;;;;;;;;5097064;28;20207;-67
2024/01/12 03:26:37;;;;;;;32.60;15.90;;;;;;;;;;5096894;28;20195;-70
2024/01/12 03:29:05;;;;;;;31.27;16.58;;;;;;;;;;5097852;28;20551;-70
2024/01/12 03:31:35;;;;;;;31.88;16.05;;;;;;;;;;5080689;28;20195;-70
2024/01/12 03:34:03;;;;;;;26.75;15.13;;;;;;;;;;5098225;28;20202;-70
2024/01/12 03:36:31;;;;;;;29.33;15.68;;;;;;;;;;5084926;28;20205;-70
2024/01/12 03:39:00;;;;;;;31.60;16.38;;;;;;;;;;5097606;28;20201;-70
2024/01/12 03:41:28;;;;;;;24.13;15.48;;;;;;;;;;5097709;28;20231;-70
2024/01/12 03:43:56;;;;;;;26.65;14.48;;;;;;;;;;5097068;28;20199;-70
2024/01/12 03:46:24;;;;;;;32.92;16.33;;;;;;;;;;5065730;28;20275;-70
2024/01/12 03:48:55;;;;;;;26.13;16.08;;;;;;;;;;5078995;28;20664;-70
2024/01/12 03:51:24;;;;;;;27.27;15.05;;;;;;;;;;5098823;28;20211;-70
2024/01/12 03:53:52;;;;;;;28.73;15.45;;;;;;;;;;5096910;28;20202;-69
2024/01/12 03:56:21;;;;;;;30.10;16.50;;;;;;;;;;5098085;28;20192;-70
2024/01/12 03:58:49;;;;;;;39.08;17.20;;;;;;;;;;5097786;28;20211;-70
2024/01/12 04:01:17;;;;;;;29.52;15.82;;;;;;;;;;5097574;28;20207;-70
2024/01/12 04:03:45;;;;;;;33.85;17.05;;;;;;;;;;5095922;28;20203;-70
2024/01/12 04:06:16;;;;;;;34.40;16.30;;;;;;;;;;5097578;28;20547;-69
2024/01/12 04:08:44;;;;;;;25.30;15.00;;;;;;;;;;5093476;28;20210;-70
2024/01/12 04:11:21;;;;;;;37.40;16.73;;;;;;;;;;5098946;28;20203;-70
2024/01/12 04:13:49;;;;;;;34.53;19.08;;;;;;;;;;5097557;28;20487;-70
2024/01/12 04:16:18;;;;;;;31.65;17.15;;;;;;;;;;5093871;28;20289;-70
2024/01/12 04:18:46;;;;;;;33.47;17.98;;;;;;;;;;5093253;28;20207;-69
2024/01/12 04:21:14;;;;;;;31.38;18.00;;;;;;;;;;5095359;28;20654;-70
2024/01/12 04:23:44;;;;;;;37.38;18.77;;;;;;;;;;5096643;28;20212;-70
2024/01/12 04:26:12;;;;;;;33.85;17.02;;;;;;;;;;5095950;28;20203;-69
2024/01/12 04:28:40;;;;;;;38.90;18.85;;;;;;;;;;5076839;28;20726;-70
2024/01/12 04:31:09;;;;;;;40.75;20.52;;;;;;;;;;5094561;28;20683;-70
2024/01/12 04:33:37;;;;;;;39.95;19.40;;;;;;;;;;5094747;28;20196;-70
2024/01/12 04:36:07;;;;;;;31.30;16.77;;;;;;;;;;5094756;28;20192;-70
2024/01/12 04:38:35;;;;;;;33.72;18.40;;;;;;;;;;5094875;28;20240;-69
2024/01/12 04:41:05;;;;;;;36.90;20.20;;;;;;;;;;5094344;28;20238;-70
2024/01/12 04:43:33;;;;;;;46.55;21.50;;;;;;;;;;5093724;28;20223;-70
2024/01/12 04:46:02;;;;;;;41.65;20.17;;;;;;;;;;5086106;28;20219;-70
2024/01/12 04:48:30;;;;;;;37.08;18.65;;;;;;;;;;5094280;28;20208;-70
2024/01/12 04:50:58;;;;;;;38.08;19.52;;;;;;;;;;5093980;28;20198;-70
2024/01/12 04:53:27;;;;;;;38.25;20.15;;;;;;;;;;5093401;28;20191;-70
2024/01/12 04:55:55;;;;;;;36.78;19.05;;;;;;;;;;5094804;28;20207;-70
2024/01/12 04:58:24;;;;;;;42.22;20.33;;;;;;;;;;5094126;28;20214;-70
2024/01/12 05:00:53;;;;;;;41.08;22.60;;;;;;;;;;5075901;28;20199;-70
2024/01/12 05:03:23;;;;;;;41.92;22.30;;;;;;;;;;5093632;28;20204;-70
2024/01/12 05:05:52;;;;;;;53.58;25.02;;;;;;;;;;5093540;28;20601;-70
2024/01/12 05:08:20;;;;;;;55.13;25.00;;;;;;;;;;5094405;28;20203;-70
2024/01/12 05:10:51;;;;;;;53.38;23.83;;;;;;;;;;5093853;28;20252;-70
2024/01/12 05:13:19;;;;;;;55.78;26.55;;;;;;;;;;5093845;28;20202;-69
2024/01/12 05:15:48;;;;;;;54.90;25.90;;;;;;;;;;5093900;28;20199;-70
2024/01/12 05:18:22;;;;;;;49.92;24.25;;;;;;;;;;5092531;28;20201;-69
2024/01/12 05:20:50;;;;;;;54.50;23.58;;;;;;;;;;5075785;28;20198;-70
2024/01/12 05:23:19;;;;;;;52.88;24.52;;;;;;;;;;5093799;28;20280;-70
2024/01/12 05:25:47;;;;;;;49.60;24.23;;;;;;;;;;5075724;28;20553;-70
2024/01/12 05:28:15;;;;;;;47.65;22.48;;;;;;;;;;5093602;28;20211;-70
2024/01/12 05:30:44;;;;;;;45.97;23.02;;;;;;;;;;5092037;28;20654;-70
2024/01/12 05:33:13;;;;;;;51.05;23.88;;;;;;;;;;5072226;28;20203;-69
2024/01/12 05:35:42;;;;;;;47.65;25.73;;;;;;;;;;5088985;28;20195;-70
2024/01/12 05:38:10;;;;;;;44.97;23.27;;;;;;;;;;5094139;28;20206;-70
2024/01/12 05:40:38;;;;;;;46.30;22.70;;;;;;;;;;5094219;28;20230;-70
2024/01/12 05:43:06;;;;;;;50.08;25.52;;;;;;;;;;5094023;28;20566;-70
2024/01/12 05:45:34;;;;;;;48.15;24.45;;;;;;;;;;5092890;28;20786;-70
2024/01/12 05:48:03;;;;;;;49.50;25.80;;;;;;;;;;5093007;28;20203;-70
2024/01/12 05:50:32;;;;;;;53.30;26.90;;;;;;;;;;5093621;28;20240;-70
2024/01/12 05:53:01;;;;;;;47.25;25.35;;;;;;;;;;5094275;28;21417;-70
2024/01/12 05:55:31;;;;;;;50.55;25.48;;;;;;;;;;5094034;28;20198;-70
2024/01/12 05:57:59;;;;;;;51.42;26.65;;;;;;;;;;5093985;28;20184;-70
2024/01/12 06:00:27;;;;;;;55.92;28.45;;;;;;;;;;5094113;28;20196;-70
2024/01/12 06:02:56;;;;;;;54.35;25.67;;;;;;;;;;5092779;28;20219;-70
2024/01/12 06:05:24;;;;;;;50.67;25.90;;;;;;;;;;5092353;28;20202;-70
2024/01/12 06:07:53;;;;;;;60.67;26.95;;;;;;;;;;5093609;28;20195;-70
2024/01/12 06:10:21;;;;;;;54.70;27.33;;;;;;;;;;5090778;28;20210;-70
2024/01/12 06:12:50;;;;;;;58.35;26.60;;;;;;;;;;5093007;28;20191;-71
2024/01/12 06:15:20;;;;;;;58.50;27.00;;;;;;;;;;5092834;28;20202;-70
2024/01/12 06:17:48;;;;;;;55.88;27.73;;;;;;;;;;5093066;28;20194;-70
2024/01/12 06:20:17;;;;;;;49.47;27.00;;;;;;;;;;5091936;28;20200;-70
2024/01/12 06:22:45;;;;;;;49.65;26.67;;;;;;;;;;5074317;28;20211;-70
2024/01/12 06:25:15;;;;;;;59.60;26.63;;;;;;;;;;5074294;28;20252;-70
2024/01/12 06:27:43;;;;;;;55.95;26.40;;;;;;;;;;5083490;28;20214;-70
2024/01/12 06:30:12;;;;;;;57.35;26.70;;;;;;;;;;5092721;28;20203;-70
2024/01/12 06:32:40;;;;;;;49.40;26.38;;;;;;;;;;5092944;28;20583;-70
2024/01/12 06:35:09;;;;;;;56.08;26.65;;;;;;;;;;5093054;28;20217;-70
2024/01/12 06:37:38;;;;;;;58.20;26.90;;;;;;;;;;5092183;28;20255;-70
2024/01/12 06:40:07;;;;;;;50.40;25.02;;;;;;;;;;5091660;28;20571;-70
2024/01/12 06:42:36;;;;;;;52.40;26.92;;;;;;;;;;5093027;28;20556;-70
2024/01/12 06:45:07;;;;;;;54.85;26.55;;;;;;;;;;5090433;28;20229;-70
2024/01/12 06:47:35;;;;;;;51.00;26.88;;;;;;;;;;5092726;28;20256;-70
2024/01/12 06:50:03;;;;;;;55.17;26.67;;;;;;;;;;5092311;28;20709;-70
2024/01/12 06:52:31;;;;;;;53.67;26.65;;;;;;;;;;5092344;28;20203;-70
2024/01/12 06:55:00;;;;;;;49.58;26.70;;;;;;;;;;5092782;28;20567;-70
2024/01/12 06:57:28;;;;;;;58.03;26.92;;;;;;;;;;5092723;28;20196;-70
2024/01/12 06:59:58;;;;;;;58.85;28.42;;;;;;;;;;5092832;28;20207;-70
2024/01/12 07:02:26;;;;;;;57.15;28.13;;;;;;;;;;5092302;28;20211;-70
2024/01/12 07:04:54;;;;;;;57.70;30.35;;;;;;;;;;5073941;28;20226;-70
2024/01/12 07:07:22;;;;;;;58.67;27.58;;;;;;;;;;5092546;28;20210;-71
2024/01/12 07:09:51;;;;;;;51.33;25.35;;;;;;;;;;5074185;28;20217;-71
2024/01/12 07:12:19;;;;;;;52.42;27.38;;;;;;;;;;5092258;28;20226;-70
2024/01/12 07:14:47;;;;;;;59.42;34.58;;;;;;;;;;5091555;28;20816;-66
2024/01/12 07:17:17;;;;;;;60.60;29.98;;;;;;;;;;5075538;28;20678;-68
2024/01/12 07:19:46;;;;;;;55.92;27.60;;;;;;;;;;5090770;28;20184;-68
2024/01/12 07:22:14;;;;;;;66.13;29.33;;;;;;;;;;5091542;28;20203;-68
2024/01/12 07:24:42;;;;;;;54.95;29.35;;;;;;;;;;5092035;28;20207;-69
2024/01/12 07:27:10;;;;;;;59.05;30.48;;;;;;;;;;5075827;28;20569;-68
2024/01/12 07:29:39;;;;;;;51.22;26.95;;;;;;;;;;5091742;28;20571;-68
2024/01/12 07:32:07;;;;;;;56.65;26.35;;;;;;;;;;5093759;28;20203;-68
2024/01/12 07:34:37;;;;;;;62.42;27.13;;;;;;;;;;5092531;28;20200;-68
2024/01/12 07:37:05;;;;;;;49.08;24.67;;;;;;;;;;5093388;28;20652;-67
2024/01/12 07:39:33;;;;;;;62.35;29.48;;;;;;;;;;5090868;28;20267;-67
2024/01/12 07:42:02;;;;;;;54.50;27.70;;;;;;;;;;5069247;28;20219;-67
2024/01/12 07:44:30;;;;;;;53.20;27.70;;;;;;;;;;5052475;28;20284;-67
2024/01/12 07:46:58;;;;;;;59.88;29.17;;;;;;;;;;5071224;28;20192;-67
2024/01/12 07:49:26;;;;;;;58.83;31.05;;;;;;;;;;5071695;28;20204;-67
2024/01/12 07:51:56;;;;;;;61.38;32.38;;;;;;;;;;5074584;28;20196;-67
2024/01/12 07:54:24;;;;;;;59.55;31.33;;;;;;;;;;5074838;28;20199;-67
2024/01/12 07:56:54;;;;;;;57.35;30.30;;;;;;;;;;5075247;28;20197;-68
2024/01/12 07:59:22;;;;;;;61.70;30.50;;;;;;;;;;5073928;28;20252;-67
2024/01/12 08:01:53;;;;;;;61.78;31.05;;;;;;;;;;5074792;28;20256;-67
2024/01/12 08:04:21;;;;;;;60.75;29.92;;;;;;;;;;5072766;28;20345;-69
2024/01/12 08:06:49;;;;;;;54.42;25.25;;;;;;;;;;5071900;28;20815;-68
2024/01/12 08:09:19;;;;;;;58.35;28.00;;;;;;;;;;5073007;28;20200;-68
2024/01/12 08:11:47;;;;;;;59.40;29.42;;;;;;;;;;5071187;28;20208;-68
2024/01/12 08:14:15;;;;;;;66.03;29.92;;;;;;;;;;5074243;28;20188;-67
2024/01/12 08:16:43;;;;;;;47.03;25.80;;;;;;;;;;5072893;28;20204;-67
2024/01/12 08:19:12;;;;;;;58.78;29.85;;;;;;;;;;5073684;28;20196;-68
2024/01/12 08:21:40;;;;;;;49.85;26.80;;;;;;;;;;5073658;28;20196;-69
2024/01/12 08:24:08;;;;;;;52.60;28.02;;;;;;;;;;5072181;28;20224;-70
2024/01/12 08:26:38;;;;;;;55.75;26.98;;;;;;;;;;5073800;28;20200;-70
2024/01/12 08:29:06;;;;;;;55.08;27.95;;;;;;;;;;5073556;28;20201;-68
2024/01/12 08:31:34;;;;;;;65.20;33.22;;;;;;;;;;5075889;28;20722;-70
2024/01/12 08:34:02;;;;;;;52.60;29.60;;;;;;;;;;5075615;28;20193;-69
2024/01/12 08:36:31;;;;;;;58.15;28.45;;;;;;;;;;5068985;28;20201;-68
2024/01/12 08:38:59;;;;;;;57.00;29.08;;;;;;;;;;5071415;28;20199;-68
2024/01/12 08:41:27;;;;;;;56.42;30.45;;;;;;;;;;5088344;28;20732;-67
2024/01/12 08:43:57;;;;;;;61.53;29.17;;;;;;;;;;5076737;28;20218;-67
2024/01/12 08:46:25;;;;;;;45.20;27.00;;;;;;;;;;5095412;28;20192;-67
2024/01/12 08:48:54;;;;;;;55.08;26.33;;;;;;;;;;5094620;28;20199;-67
2024/01/12 08:51:23;;;;;;;56.70;28.27;;;;;;;;;;5093878;28;20206;-67
2024/01/12 08:53:51;;;;;;;49.40;25.77;;;;;;;;;;5094808;28;20201;-67
2024/01/12 08:56:19;;;;;;;47.15;24.67;;;;;;;;;;5093284;28;20680;-69
2024/01/12 08:58:48;;;;;;;52.35;28.90;;;;;;;;;;5095578;28;20205;-68
2024/01/12 09:01:18;;;;;;;43.60;24.38;;;;;;;;;;5092634;28;20236;-68
2024/01/12 09:03:46;;;;;;;51.35;25.40;;;;;;;;;;5074746;28;20205;-68
2024/01/12 09:06:14;;;;;;;50.72;25.10;;;;;;;;;;5093082;28;20231;-68
2024/01/12 09:08:42;;;;;;;51.10;24.63;;;;;;;;;;5092774;28;20209;-69
2024/01/12 09:11:12;;;;;;;43.90;23.73;;;;;;;;;;5088391;28;20199;-68
2024/01/12 09:13:40;;;;;;;42.97;24.70;;;;;;;;;;5092864;28;20203;-69
2024/01/12 09:16:09;;;;;;;46.38;25.52;;;;;;;;;;5089481;28;20210;-68
2024/01/12 09:18:39;;;;;;;40.22;23.35;;;;;;;;;;5092771;28;20209;-68
2024/01/12 09:21:07;;;;;;;51.00;25.75;;;;;;;;;;5093359;28;20658;-69
2024/01/12 09:23:35;;;;;;;43.85;22.88;;;;;;;;;;5093125;28;20587;-67
2024/01/12 09:26:03;;;;;;;37.55;23.70;;;;;;;;;;5074612;28;20677;-68
2024/01/12 09:28:32;;;;;;;31.52;18.02;;;;;;;;;;5093443;28;20199;-68
2024/01/12 09:31:00;;;;;;;38.42;21.08;;;;;;;;;;5093183;28;20199;-67
2024/01/12 09:33:28;;;;;;;45.65;24.73;;;;;;;;;;5091970;28;20687;-67
2024/01/12 09:35:58;;;;;;;43.50;21.92;;;;;;;;;;5074199;28;20207;-67
2024/01/12 09:38:26;;;;;;;35.97;21.85;;;;;;;;;;5092465;28;20214;-69
2024/01/12 09:40:55;;;;;;;40.28;22.40;;;;;;;;;;5091902;28;20673;-70
2024/01/12 09:43:23;;;;;;;35.67;20.58;;;;;;;;;;5091357;28;20203;-69
2024/01/12 09:45:52;;;;;;;36.28;20.40;;;;;;;;;;5090435;28;20229;-69
2024/01/12 09:48:21;;;;;;;46.83;21.75;;;;;;;;;;5092335;28;20205;-69
2024/01/12 09:50:52;;;;;;;38.95;19.98;;;;;;;;;;5074416;28;20228;-69
2024/01/12 09:53:21;;;;;;;37.75;22.15;;;;;;;;;;5091402;28;20209;-69
2024/01/12 09:55:50;;;;;;;35.08;20.73;;;;;;;;;;5091660;28;20319;-69
2024/01/12 09:58:18;;;;;;;35.83;21.52;;;;;;;;;;5090954;28;20279;-69
2024/01/12 10:00:49;;;;;;;44.00;23.25;;;;;;;;;;5057010;28;20687;-68
2024/01/12 10:03:18;;;;;;;48.42;22.52;;;;;;;;;;5091360;28;20572;-68
2024/01/12 10:05:46;;;;;;;38.03;22.17;;;;;;;;;;5091159;28;20219;-68
2024/01/12 10:08:15;;;;;;;38.40;21.25;;;;;;;;;;5091155;28;20672;-68
2024/01/12 10:10:47;;;;;;;41.17;23.02;;;;;;;;;;5090749;28;20195;-70
2024/01/12 10:13:16;;;;;;;34.95;21.65;;;;;;;;;;5090363;28;20258;-70
2024/01/12 10:15:44;;;;;;;39.53;23.45;;;;;;;;;;5071656;28;20202;-71
2024/01/12 10:18:12;;;;;;;36.15;21.58;;;;;;;;;;5073084;28;20199;-70
2024/01/12 10:20:42;;;;;;;36.60;21.50;;;;;;;;;;5091533;28;20207;-69
2024/01/12 10:23:11;;;;;;;39.50;21.63;;;;;;;;;;5092075;28;20203;-69
2024/01/12 10:25:39;;;;;;;30.05;19.90;;;;;;;;;;5091126;28;20573;-69
2024/01/12 10:28:09;;;;;;;34.70;19.85;;;;;;;;;;5091280;28;20203;-68
2024/01/12 10:30:38;;;;;;;38.05;19.85;;;;;;;;;;5091462;28;20552;-70
2024/01/12 10:33:06;;;;;;;42.92;24.20;;;;;;;;;;5074223;28;20594;-68
2024/01/12 10:35:34;;;;;;;36.72;20.67;;;;;;;;;;5091827;28;20703;-67
2024/01/12 10:38:03;;;;;;;33.78;19.90;;;;;;;;;;5091823;28;20218;-68
2024/01/12 10:40:34;;;;;;;32.85;20.17;;;;;;;;;;5090829;28;20223;-67
2024/01/12 10:43:04;;;;;;;36.58;21.08;;;;;;;;;;5091522;28;20219;-68
2024/01/12 10:45:37;;;;;;;54.60;21.23;;;;;;;;;;5086685;28;20230;-68
2024/01/12 10:48:05;;;;;;;37.60;22.45;;;;;;;;;;5072542;28;20190;-69
2024/01/12 10:50:36;;;;;;;35.22;19.50;;;;;;;;;;5088849;28;20200;-68
2024/01/12 10:53:07;;;;;;;36.70;21.45;;;;;;;;;;5091187;28;20184;-69
2024/01/12 10:55:38;;;;;;;32.45;21.55;;;;;;;;;;5090547;28;20654;-69
2024/01/12 10:58:07;;;;;;;33.08;21.15;;;;;;;;;;5089943;28;20210;-68
2024/01/12 11:00:36;;;;;;;40.72;23.65;;;;;;;;;;5072997;28;20230;-68
2024/01/12 11:03:05;;;;;;;35.60;20.40;;;;;;;;;;5090527;28;20207;-68
2024/01/12 11:05:34;;;;;;;31.08;19.67;;;;;;;;;;5090283;28;20218;-68
2024/01/12 11:08:06;;;;;;;35.22;20.95;;;;;;;;;;5090877;28;20203;-70
2024/01/12 11:10:35;;;;;;;33.38;19.58;;;;;;;;;;5073364;28;20642;-70
2024/01/12 11:13:04;;;;;;;33.35;20.00;;;;;;;;;;5090734;28;20198;-70
2024/01/12 11:15:32;;;;;;;29.63;19.17;;;;;;;;;;5091296;28;20199;-70
2024/01/12 11:18:01;;;;;;;32.75;19.98;;;;;;;;;;5090288;28;20206;-70
2024/01/12 11:20:30;;;;;;;29.17;18.77;;;;;;;;;;5091845;28;20719;-70
2024/01/12 11:23:00;;;;;;;36.70;19.98;;;;;;;;;;5091777;28;20207;-71
2024/01/12 11:25:28;;;;;;;37.40;20.63;;;;;;;;;;5095163;28;20247;-70
2024/01/12 11:27:57;;;;;;;39.45;21.27;;;;;;;;;;5071879;28;20196;-70
2024/01/12 11:30:26;;;;;;;30.98;18.88;;;;;;;;;;5095994;28;20248;-70
2024/01/12 11:33:03;;;;;;;41.00;21.80;;;;;;;;;;5094792;28;20730;-70
2024/01/12 11:35:32;;;;;;;31.33;18.13;;;;;;;;;;5077705;28;20186;-70
2024/01/12 11:38:01;;;;;;;32.60;19.45;;;;;;;;;;5094416;28;20568;-70
2024/01/12 11:40:29;;;;;;;29.40;19.05;;;;;;;;;;5095214;28;20244;-70
2024/01/12 11:43:00;;;;;;;29.52;18.70;;;;;;;;;;5094816;28;20275;-70
2024/01/12 11:45:29;;;;;;;35.33;20.42;;;;;;;;;;5089347;28;20230;-70
2024/01/12 11:47:57;;;;;;;35.28;20.05;;;;;;;;;;5094735;28;20232;-70
2024/01/12 11:50:27;;;;;;;31.25;19.27;;;;;;;;;;5071837;28;20199;-69
2024/01/12 11:52:59;;;;;;;33.10;19.17;;;;;;;;;;5086045;28;20543;-70
2024/01/12 11:55:27;;;;;;;38.85;21.58;;;;;;;;;;5092298;28;20252;-70
2024/01/12 11:57:56;;;;;;;31.02;16.60;;;;;;;;;;5075228;28;20206;-70
2024/01/12 12:00:24;;;;;;;32.35;17.95;;;;;;;;;;5094250;28;20195;-70
2024/01/12 12:02:52;;;;;;;28.90;15.63;;;;;;;;;;5093177;28;20213;-70
2024/01/12 12:05:21;;;;;;;27.42;16.70;;;;;;;;;;5090385;28;20226;-70
2024/01/12 12:07:51;;;;;;;39.10;20.05;;;;;;;;;;5093542;28;20272;-70
2024/01/12 12:10:19;;;;;;;39.05;20.08;;;;;;;;;;5087692;28;20191;-70
2024/01/12 12:12:47;;;;;;;28.58;16.88;;;;;;;;;;5093596;28;20199;-70
2024/01/12 12:15:15;;;;;;;29.20;15.63;;;;;;;;;;5092079;28;20206;-70
2024/01/12 12:17:45;;;;;;;26.27;16.05;;;;;;;;;;5093336;28;20556;-70
2024/01/12 12:20:14;;;;;;;32.83;17.08;;;;;;;;;;5092395;28;20276;-70
2024/01/12 12:22:42;;;;;;;32.85;17.85;;;;;;;;;;5092723;28;20191;-70
2024/01/12 12:25:12;;;;;;;27.95;16.73;;;;;;;;;;5094399;28;20203;-70
2024/01/12 12:27:41;;;;;;;31.75;18.30;;;;;;;;;;5093762;28;20210;-70
2024/01/12 12:30:10;;;;;;;27.88;15.95;;;;;;;;;;5094765;28;20207;-70
2024/01/12 12:32:39;;;;;;;34.60;17.30;;;;;;;;;;5094055;28;20195;-70
2024/01/12 12:35:14;;;;;;;27.98;16.60;;;;;;;;;;5069815;28;20204;-72
2024/01/12 12:37:42;;;;;;;30.98;17.60;;;;;;;;;;5091703;28;20567;-69
2024/01/12 12:40:13;;;;;;;25.95;16.35;;;;;;;;;;5093626;28;20243;-67
2024/01/12 12:42:41;;;;;;;33.85;17.75;;;;;;;;;;5093571;28;20211;-68
2024/01/12 12:45:10;;;;;;;37.95;18.90;;;;;;;;;;5091472;28;20234;-66
2024/01/12 12:47:38;;;;;;;31.88;18.40;;;;;;;;;;5093326;28;20221;-67
2024/01/12 12:50:09;;;;;;;30.13;17.45;;;;;;;;;;5092784;28;20221;-66
2024/01/12 12:52:37;;;;;;;30.75;18.65;;;;;;;;;;5094225;28;20194;-67
2024/01/12 12:55:06;;;;;;;38.47;23.15;;;;;;;;;;5091620;28;20199;-70
2024/01/12 12:57:36;;;;;;;48.85;26.60;;;;;;;;;;5091406;28;20652;-68
2024/01/12 13:00:07;;;;;;;49.80;27.15;;;;;;;;;;5091674;28;20210;-68
2024/01/12 13:02:35;;;;;;;50.42;28.05;;;;;;;;;;5090942;28;20207;-69
2024/01/12 13:05:04;;;;;;;57.00;29.40;;;;;;;;;;5085999;28;20199;-66
2024/01/12 13:07:32;;;;;;;62.58;30.10;;;;;;;;;;5089035;28;20219;-67
2024/01/12 13:10:00;;;;;;;56.60;28.80;;;;;;;;;;5059524;28;20215;-68
2024/01/12 13:12:29;;;;;;;49.38;25.98;;;;;;;;;;5092315;28;20789;-67
2024/01/12 13:14:58;;;;;;;48.92;24.90;;;;;;;;;;5090547;28;20211;-68
2024/01/12 13:17:27;;;;;;;41.17;24.83;;;;;;;;;;5093694;28;20617;-67
2024/01/12 13:19:55;;;;;;;58.58;29.08;;;;;;;;;;5092640;28;20191;-67
2024/01/12 13:22:23;;;;;;;41.70;23.67;;;;;;;;;;5093677;28;20676;-67
2024/01/12 13:24:51;;;;;;;50.05;23.45;;;;;;;;;;5093128;28;20196;-67
2024/01/12 13:27:21;;;;;;;39.38;22.77;;;;;;;;;;5063889;28;20226;-68
2024/01/12 13:29:49;;;;;;;36.30;21.92;;;;;;;;;;5092424;28;20260;-67
2024/01/12 13:32:19;;;;;;;36.58;20.15;;;;;;;;;;5092542;28;20206;-68
2024/01/12 13:34:47;;;;;;;50.13;25.25;;;;;;;;;;5092397;28;20195;-67
2024/01/12 13:37:16;;;;;;;63.47;27.83;;;;;;;;;;5091608;28;20661;-67
2024/01/12 13:39:44;;;;;;;59.97;25.95;;;;;;;;;;5092765;28;20221;-67
2024/01/12 13:42:12;;;;;;;39.95;21.23;;;;;;;;;;5092162;28;20199;-67
2024/01/12 13:44:42;;;;;;;38.85;21.80;;;;;;;;;;5075465;28;20237;-71
2024/01/12 13:47:10;;;;;;;73.32;30.98;;;;;;;;;;5072045;28;20220;-67
2024/01/12 13:49:40;;;;;;;41.83;23.20;;;;;;;;;;5092554;28;20196;-67
2024/01/12 13:52:11;;;;;;;46.78;24.02;;;;;;;;;;5093045;28;20199;-67
2024/01/12 13:54:39;;;;;;;37.63;21.40;;;;;;;;;;5093461;28;20187;-67
2024/01/12 13:57:07;;;;;;;42.72;23.95;;;;;;;;;;5074551;28;20666;-68
2024/01/12 13:59:37;;;;;;;41.28;24.35;;;;;;;;;;5091943;28;20661;-67
2024/01/12 14:02:06;;;;;;;33.50;19.25;;;;;;;;;;5087655;28;20206;-67
2024/01/12 14:04:34;;;;;;;51.53;23.65;;;;;;;;;;5089867;28;20199;-68
2024/01/12 14:07:04;;;;;;;42.85;20.75;;;;;;;;;;5091924;28;20563;-69
2024/01/12 14:09:32;;;;;;;35.22;18.40;;;;;;;;;;5093776;28;20213;-69
2024/01/12 14:12:01;;;;;;;46.75;21.13;;;;;;;;;;5093031;28;20203;-69
2024/01/12 14:14:29;;;;;;;37.92;19.25;;;;;;;;;;5066719;28;20545;-68
2024/01/12 14:17:00;;;;;;;37.33;18.67;;;;;;;;;;5094120;28;20199;-69
2024/01/12 14:19:29;;;;;;;35.10;18.38;;;;;;;;;;5091524;28;20210;-68
2024/01/12 14:21:57;;;;;;;32.42;17.98;;;;;;;;;;5075484;28;20203;-68
2024/01/12 14:24:27;;;;;;;47.90;22.33;;;;;;;;;;5092533;28;20708;-68